sensor_id;sensor_type;location;lat;lon;timestamp;P1;durP1;ratioP1;P2;durP2;ratioP2
9524;SDS011;15940;48.734;9.112;2023-07-02T00:00:22;2.70;;;2.50;;
9524;SDS011;15940;48.734;9.112;2023-07-02T00:02:49;3.27;;;2.57;;
9524;SDS011;15940;48.734;9.112;2023-07-02T00:05:16;3.20;;;2.50;;
9524;SDS011;15940;48.734;9.112;2023-07-02T00:07:45;4.93;;;2.80;;
9524;SDS011;15940;48.734;9.112;2023-07-02T00:10:13;2.77;;;2.57;;
9524;SDS011;15940;48.734;9.112;2023-07-02T00:12:47;2.83;;;2.60;;
9524;SDS011;15940;48.734;9.112;2023-07-02T00:15:14;2.93;;;2.73;;
9524;SDS011;15940;48.734;9.112;2023-07-02T00:17:43;2.50;;;2.30;;
9524;SDS011;15940;48.734;9.112;2023-07-02T00:20:10;4.67;;;2.57;;
9524;SDS011;15940;48.734;9.112;2023-07-02T00:22:40;3.23;;;2.60;;
9524;SDS011;15940;48.734;9.112;2023-07-02T00:25:12;2.53;;;2.40;;
9524;SDS011;15940;48.734;9.112;2023-07-02T00:27:40;4.77;;;3.13;;
9524;SDS011;15940;48.734;9.112;2023-07-02T00:30:08;3.07;;;2.77;;
9524;SDS011;15940;48.734;9.112;2023-07-02T00:32:36;3.03;;;2.73;;
9524;SDS011;15940;48.734;9.112;2023-07-02T00:35:05;2.93;;;2.73;;
9524;SDS011;15940;48.734;9.112;2023-07-02T00:37:36;3.10;;;2.70;;
9524;SDS011;15940;48.734;9.112;2023-07-02T00:40:05;8.03;;;3.10;;
9524;SDS011;15940;48.734;9.112;2023-07-02T00:42:33;3.03;;;2.73;;
9524;SDS011;15940;48.734;9.112;2023-07-02T00:45:00;4.20;;;2.90;;
9524;SDS011;15940;48.734;9.112;2023-07-02T00:47:28;2.90;;;2.70;;
9524;SDS011;15940;48.734;9.112;2023-07-02T00:49:56;3.93;;;2.63;;
9524;SDS011;15940;48.734;9.112;2023-07-02T00:52:24;3.10;;;2.67;;
9524;SDS011;15940;48.734;9.112;2023-07-02T00:54:53;2.93;;;2.60;;
9524;SDS011;15940;48.734;9.112;2023-07-02T00:57:21;3.83;;;2.83;;
9524;SDS011;15940;48.734;9.112;2023-07-02T00:59:56;3.17;;;2.90;;
9524;SDS011;15940;48.734;9.112;2023-07-02T01:02:27;3.97;;;2.57;;
9524;SDS011;15940;48.734;9.112;2023-07-02T01:04:57;3.20;;;2.90;;
9524;SDS011;15940;48.734;9.112;2023-07-02T01:07:26;2.77;;;2.67;;
9524;SDS011;15940;48.734;9.112;2023-07-02T01:09:53;3.23;;;2.50;;
9524;SDS011;15940;48.734;9.112;2023-07-02T01:12:20;4.07;;;2.60;;
9524;SDS011;15940;48.734;9.112;2023-07-02T01:14:49;3.20;;;2.70;;
9524;SDS011;15940;48.734;9.112;2023-07-02T01:17:23;3.10;;;2.80;;
9524;SDS011;15940;48.734;9.112;2023-07-02T01:19:55;3.00;;;2.57;;
9524;SDS011;15940;48.734;9.112;2023-07-02T01:22:25;4.03;;;2.53;;
9524;SDS011;15940;48.734;9.112;2023-07-02T01:24:55;2.90;;;2.70;;
9524;SDS011;15940;48.734;9.112;2023-07-02T01:27:27;3.03;;;2.53;;
9524;SDS011;15940;48.734;9.112;2023-07-02T01:29:58;4.10;;;2.50;;
9524;SDS011;15940;48.734;9.112;2023-07-02T01:32:25;4.83;;;2.30;;
9524;SDS011;15940;48.734;9.112;2023-07-02T01:34:52;3.20;;;2.60;;
9524;SDS011;15940;48.734;9.112;2023-07-02T01:37:22;3.50;;;2.60;;
9524;SDS011;15940;48.734;9.112;2023-07-02T01:39:49;2.70;;;2.50;;
9524;SDS011;15940;48.734;9.112;2023-07-02T01:42:17;2.73;;;2.50;;
9524;SDS011;15940;48.734;9.112;2023-07-02T01:44:45;2.20;;;2.03;;
9524;SDS011;15940;48.734;9.112;2023-07-02T01:47:14;5.40;;;2.70;;
9524;SDS011;15940;48.734;9.112;2023-07-02T01:49:42;2.93;;;2.67;;
9524;SDS011;15940;48.734;9.112;2023-07-02T01:52:11;3.93;;;2.47;;
9524;SDS011;15940;48.734;9.112;2023-07-02T01:54:40;4.20;;;2.80;;
9524;SDS011;15940;48.734;9.112;2023-07-02T01:57:09;2.97;;;2.57;;
9524;SDS011;15940;48.734;9.112;2023-07-02T01:59:36;2.90;;;2.63;;
9524;SDS011;15940;48.734;9.112;2023-07-02T02:02:03;2.60;;;2.27;;
9524;SDS011;15940;48.734;9.112;2023-07-02T02:04:30;2.63;;;2.43;;
9524;SDS011;15940;48.734;9.112;2023-07-02T02:06:59;2.57;;;2.37;;
9524;SDS011;15940;48.734;9.112;2023-07-02T02:09:28;2.83;;;2.50;;
9524;SDS011;15940;48.734;9.112;2023-07-02T02:11:57;2.97;;;2.40;;
9524;SDS011;15940;48.734;9.112;2023-07-02T02:14:24;2.57;;;2.37;;
9524;SDS011;15940;48.734;9.112;2023-07-02T02:16:54;2.63;;;2.43;;
9524;SDS011;15940;48.734;9.112;2023-07-02T02:19:21;3.13;;;2.37;;
9524;SDS011;15940;48.734;9.112;2023-07-02T02:21:48;2.50;;;2.30;;
9524;SDS011;15940;48.734;9.112;2023-07-02T02:24:17;2.43;;;2.33;;
9524;SDS011;15940;48.734;9.112;2023-07-02T02:26:47;5.20;;;2.37;;
9524;SDS011;15940;48.734;9.112;2023-07-02T02:29:14;3.63;;;2.10;;
9524;SDS011;15940;48.734;9.112;2023-07-02T02:31:48;2.20;;;2.10;;
9524;SDS011;15940;48.734;9.112;2023-07-02T02:34:15;2.67;;;2.47;;
9524;SDS011;15940;48.734;9.112;2023-07-02T02:36:45;2.63;;;2.20;;
9524;SDS011;15940;48.734;9.112;2023-07-02T02:39:15;2.77;;;2.50;;
9524;SDS011;15940;48.734;9.112;2023-07-02T02:41:42;2.63;;;2.30;;
9524;SDS011;15940;48.734;9.112;2023-07-02T02:44:10;2.50;;;2.30;;
9524;SDS011;15940;48.734;9.112;2023-07-02T02:46:37;2.40;;;2.20;;
9524;SDS011;15940;48.734;9.112;2023-07-02T02:49:04;2.57;;;2.10;;
9524;SDS011;15940;48.734;9.112;2023-07-02T02:51:31;2.20;;;2.10;;
9524;SDS011;15940;48.734;9.112;2023-07-02T02:54:07;2.97;;;2.40;;
9524;SDS011;15940;48.734;9.112;2023-07-02T02:56:37;3.37;;;2.30;;
9524;SDS011;15940;48.734;9.112;2023-07-02T02:59:05;4.23;;;2.37;;
9524;SDS011;15940;48.734;9.112;2023-07-02T03:01:33;2.43;;;2.23;;
9524;SDS011;15940;48.734;9.112;2023-07-02T03:04:00;2.30;;;2.20;;
9524;SDS011;15940;48.734;9.112;2023-07-02T03:06:27;3.33;;;2.30;;
9524;SDS011;15940;48.734;9.112;2023-07-02T03:08:58;3.33;;;2.43;;
9524;SDS011;15940;48.734;9.112;2023-07-02T03:11:26;3.07;;;2.50;;
9524;SDS011;15940;48.734;9.112;2023-07-02T03:13:55;2.90;;;2.60;;
9524;SDS011;15940;48.734;9.112;2023-07-02T03:16:22;4.67;;;2.63;;
9524;SDS011;15940;48.734;9.112;2023-07-02T03:18:52;2.60;;;2.40;;
9524;SDS011;15940;48.734;9.112;2023-07-02T03:23:53;2.97;;;2.63;;
9524;SDS011;15940;48.734;9.112;2023-07-02T03:26:29;5.40;;;2.90;;
9524;SDS011;15940;48.734;9.112;2023-07-02T03:28:56;6.23;;;3.07;;
9524;SDS011;15940;48.734;9.112;2023-07-02T03:31:23;4.73;;;3.13;;
9524;SDS011;15940;48.734;9.112;2023-07-02T03:33:51;3.23;;;2.90;;
9524;SDS011;15940;48.734;9.112;2023-07-02T03:36:18;3.97;;;2.90;;
9524;SDS011;15940;48.734;9.112;2023-07-02T03:38:45;3.93;;;3.13;;
9524;SDS011;15940;48.734;9.112;2023-07-02T03:41:13;7.70;;;3.60;;
9524;SDS011;15940;48.734;9.112;2023-07-02T03:43:40;4.23;;;3.40;;
9524;SDS011;15940;48.734;9.112;2023-07-02T03:46:12;4.23;;;3.20;;
9524;SDS011;15940;48.734;9.112;2023-07-02T03:48:40;7.30;;;3.60;;
9524;SDS011;15940;48.734;9.112;2023-07-02T03:51:07;5.57;;;3.67;;
9524;SDS011;15940;48.734;9.112;2023-07-02T03:53:53;8.00;;;3.40;;
9524;SDS011;15940;48.734;9.112;2023-07-02T03:56:21;5.93;;;3.53;;
9524;SDS011;15940;48.734;9.112;2023-07-02T03:58:48;4.57;;;3.70;;
9524;SDS011;15940;48.734;9.112;2023-07-02T04:01:16;3.73;;;3.10;;
9524;SDS011;15940;48.734;9.112;2023-07-02T04:03:48;5.37;;;3.73;;
9524;SDS011;15940;48.734;9.112;2023-07-02T04:06:19;4.57;;;3.40;;
9524;SDS011;15940;48.734;9.112;2023-07-02T04:08:46;7.10;;;3.30;;
9524;SDS011;15940;48.734;9.112;2023-07-02T04:11:13;4.80;;;3.37;;
9524;SDS011;15940;48.734;9.112;2023-07-02T04:13:42;7.90;;;4.13;;
9524;SDS011;15940;48.734;9.112;2023-07-02T04:16:09;4.87;;;3.70;;
9524;SDS011;15940;48.734;9.112;2023-07-02T04:18:37;5.60;;;3.63;;
9524;SDS011;15940;48.734;9.112;2023-07-02T04:21:04;5.70;;;3.83;;
9524;SDS011;15940;48.734;9.112;2023-07-02T04:23:31;8.23;;;3.87;;
9524;SDS011;15940;48.734;9.112;2023-07-02T04:25:58;4.53;;;3.50;;
9524;SDS011;15940;48.734;9.112;2023-07-02T04:28:25;6.20;;;3.70;;
9524;SDS011;15940;48.734;9.112;2023-07-02T04:30:53;4.53;;;3.53;;
9524;SDS011;15940;48.734;9.112;2023-07-02T04:33:20;10.13;;;3.70;;
9524;SDS011;15940;48.734;9.112;2023-07-02T04:35:48;6.03;;;3.67;;
9524;SDS011;15940;48.734;9.112;2023-07-02T04:38:16;4.80;;;2.97;;
9524;SDS011;15940;48.734;9.112;2023-07-02T04:40:43;4.00;;;3.37;;
9524;SDS011;15940;48.734;9.112;2023-07-02T04:43:10;3.50;;;2.80;;
9524;SDS011;15940;48.734;9.112;2023-07-02T04:45:43;4.90;;;3.23;;
9524;SDS011;15940;48.734;9.112;2023-07-02T04:48:11;7.63;;;3.80;;
9524;SDS011;15940;48.734;9.112;2023-07-02T04:50:38;3.33;;;3.03;;
9524;SDS011;15940;48.734;9.112;2023-07-02T04:53:05;3.87;;;3.10;;
9524;SDS011;15940;48.734;9.112;2023-07-02T04:55:34;3.53;;;3.00;;
9524;SDS011;15940;48.734;9.112;2023-07-02T04:58:03;3.30;;;3.00;;
9524;SDS011;15940;48.734;9.112;2023-07-02T05:00:30;5.37;;;3.13;;
9524;SDS011;15940;48.734;9.112;2023-07-02T05:02:57;7.20;;;3.10;;
9524;SDS011;15940;48.734;9.112;2023-07-02T05:05:25;6.43;;;3.57;;
9524;SDS011;15940;48.734;9.112;2023-07-02T05:07:54;3.13;;;2.80;;
9524;SDS011;15940;48.734;9.112;2023-07-02T05:10:21;5.30;;;3.70;;
9524;SDS011;15940;48.734;9.112;2023-07-02T05:12:48;4.67;;;3.37;;
9524;SDS011;15940;48.734;9.112;2023-07-02T05:15:17;4.33;;;3.60;;
9524;SDS011;15940;48.734;9.112;2023-07-02T05:17:47;4.43;;;3.57;;
9524;SDS011;15940;48.734;9.112;2023-07-02T05:20:15;5.23;;;3.73;;
9524;SDS011;15940;48.734;9.112;2023-07-02T05:22:43;3.80;;;3.37;;
9524;SDS011;15940;48.734;9.112;2023-07-02T05:25:10;5.60;;;3.30;;
9524;SDS011;15940;48.734;9.112;2023-07-02T05:27:37;4.10;;;3.40;;
9524;SDS011;15940;48.734;9.112;2023-07-02T05:30:04;5.13;;;3.67;;
9524;SDS011;15940;48.734;9.112;2023-07-02T05:32:33;4.47;;;3.83;;
9524;SDS011;15940;48.734;9.112;2023-07-02T05:35:01;4.20;;;3.77;;
9524;SDS011;15940;48.734;9.112;2023-07-02T05:37:28;4.90;;;3.83;;
9524;SDS011;15940;48.734;9.112;2023-07-02T05:39:59;5.07;;;3.63;;
9524;SDS011;15940;48.734;9.112;2023-07-02T05:42:26;6.00;;;4.10;;
9524;SDS011;15940;48.734;9.112;2023-07-02T05:44:55;5.03;;;3.53;;
9524;SDS011;15940;48.734;9.112;2023-07-02T05:47:24;6.47;;;3.63;;
9524;SDS011;15940;48.734;9.112;2023-07-02T05:49:53;7.33;;;4.40;;
9524;SDS011;15940;48.734;9.112;2023-07-02T05:52:20;5.67;;;4.13;;
9524;SDS011;15940;48.734;9.112;2023-07-02T05:54:47;6.00;;;4.27;;
9524;SDS011;15940;48.734;9.112;2023-07-02T05:57:16;8.30;;;4.63;;
9524;SDS011;15940;48.734;9.112;2023-07-02T05:59:43;7.57;;;4.50;;
9524;SDS011;15940;48.734;9.112;2023-07-02T06:02:10;8.80;;;4.80;;
9524;SDS011;15940;48.734;9.112;2023-07-02T06:04:37;6.73;;;4.60;;
9524;SDS011;15940;48.734;9.112;2023-07-02T06:07:04;7.23;;;5.00;;
9524;SDS011;15940;48.734;9.112;2023-07-02T06:09:34;9.67;;;5.50;;
9524;SDS011;15940;48.734;9.112;2023-07-02T06:12:02;8.10;;;5.20;;
9524;SDS011;15940;48.734;9.112;2023-07-02T06:14:33;10.20;;;6.13;;
9524;SDS011;15940;48.734;9.112;2023-07-02T06:17:00;10.00;;;5.50;;
9524;SDS011;15940;48.734;9.112;2023-07-02T06:19:30;7.77;;;5.47;;
9524;SDS011;15940;48.734;9.112;2023-07-02T06:21:57;11.30;;;6.10;;
9524;SDS011;15940;48.734;9.112;2023-07-02T06:24:24;7.13;;;5.20;;
9524;SDS011;15940;48.734;9.112;2023-07-02T06:26:51;13.93;;;6.70;;
9524;SDS011;15940;48.734;9.112;2023-07-02T06:29:18;11.13;;;6.40;;
9524;SDS011;15940;48.734;9.112;2023-07-02T06:31:46;10.50;;;6.67;;
9524;SDS011;15940;48.734;9.112;2023-07-02T06:34:13;12.07;;;7.40;;
9524;SDS011;15940;48.734;9.112;2023-07-02T06:36:44;12.73;;;8.43;;
9524;SDS011;15940;48.734;9.112;2023-07-02T06:39:11;11.97;;;7.13;;
9524;SDS011;15940;48.734;9.112;2023-07-02T06:41:38;12.73;;;8.10;;
9524;SDS011;15940;48.734;9.112;2023-07-02T06:44:06;10.53;;;8.30;;
9524;SDS011;15940;48.734;9.112;2023-07-02T06:46:32;8.90;;;6.70;;
9524;SDS011;15940;48.734;9.112;2023-07-02T06:49:01;12.60;;;7.40;;
9524;SDS011;15940;48.734;9.112;2023-07-02T06:51:28;16.23;;;8.40;;
9524;SDS011;15940;48.734;9.112;2023-07-02T06:53:56;14.13;;;7.53;;
9524;SDS011;15940;48.734;9.112;2023-07-02T06:56:23;13.03;;;8.33;;
9524;SDS011;15940;48.734;9.112;2023-07-02T06:58:50;14.87;;;8.80;;
9524;SDS011;15940;48.734;9.112;2023-07-02T07:01:17;12.07;;;8.40;;
9524;SDS011;15940;48.734;9.112;2023-07-02T07:03:44;12.20;;;8.77;;
9524;SDS011;15940;48.734;9.112;2023-07-02T07:06:16;16.97;;;9.63;;
9524;SDS011;15940;48.734;9.112;2023-07-02T07:08:43;11.83;;;8.43;;
9524;SDS011;15940;48.734;9.112;2023-07-02T07:11:10;15.63;;;9.47;;
9524;SDS011;15940;48.734;9.112;2023-07-02T07:13:40;14.20;;;9.50;;
9524;SDS011;15940;48.734;9.112;2023-07-02T07:16:09;13.73;;;10.00;;
9524;SDS011;15940;48.734;9.112;2023-07-02T07:18:35;14.67;;;9.63;;
9524;SDS011;15940;48.734;9.112;2023-07-02T07:21:03;15.20;;;10.40;;
9524;SDS011;15940;48.734;9.112;2023-07-02T07:23:31;16.77;;;10.37;;
9524;SDS011;15940;48.734;9.112;2023-07-02T07:26:01;15.50;;;9.07;;
9524;SDS011;15940;48.734;9.112;2023-07-02T07:28:27;13.37;;;9.73;;
9524;SDS011;15940;48.734;9.112;2023-07-02T07:30:55;17.93;;;10.93;;
9524;SDS011;15940;48.734;9.112;2023-07-02T07:33:25;20.40;;;10.73;;
9524;SDS011;15940;48.734;9.112;2023-07-02T07:35:52;17.87;;;10.53;;
9524;SDS011;15940;48.734;9.112;2023-07-02T07:38:19;16.17;;;10.67;;
9524;SDS011;15940;48.734;9.112;2023-07-02T07:40:50;15.20;;;10.50;;
9524;SDS011;15940;48.734;9.112;2023-07-02T07:43:20;15.80;;;10.33;;
9524;SDS011;15940;48.734;9.112;2023-07-02T07:45:48;16.07;;;10.97;;
9524;SDS011;15940;48.734;9.112;2023-07-02T07:48:15;16.90;;;11.33;;
9524;SDS011;15940;48.734;9.112;2023-07-02T07:50:43;20.43;;;11.07;;
9524;SDS011;15940;48.734;9.112;2023-07-02T07:53:10;15.37;;;10.53;;
9524;SDS011;15940;48.734;9.112;2023-07-02T07:55:37;15.97;;;11.43;;
9524;SDS011;15940;48.734;9.112;2023-07-02T07:58:05;16.77;;;11.33;;
9524;SDS011;15940;48.734;9.112;2023-07-02T08:00:32;16.57;;;11.10;;
9524;SDS011;15940;48.734;9.112;2023-07-02T08:03:02;19.27;;;11.33;;
9524;SDS011;15940;48.734;9.112;2023-07-02T08:05:33;16.83;;;11.07;;
9524;SDS011;15940;48.734;9.112;2023-07-02T08:08:00;17.17;;;11.73;;
9524;SDS011;15940;48.734;9.112;2023-07-02T08:10:29;14.60;;;10.50;;
9524;SDS011;15940;48.734;9.112;2023-07-02T08:12:57;18.50;;;11.30;;
9524;SDS011;15940;48.734;9.112;2023-07-02T08:15:25;18.07;;;11.33;;
9524;SDS011;15940;48.734;9.112;2023-07-02T08:17:55;16.83;;;11.27;;
9524;SDS011;15940;48.734;9.112;2023-07-02T08:20:23;13.63;;;10.50;;
9524;SDS011;15940;48.734;9.112;2023-07-02T08:22:50;15.43;;;11.00;;
9524;SDS011;15940;48.734;9.112;2023-07-02T08:25:19;15.10;;;11.27;;
9524;SDS011;15940;48.734;9.112;2023-07-02T08:27:48;16.67;;;10.90;;
9524;SDS011;15940;48.734;9.112;2023-07-02T08:30:16;20.90;;;11.17;;
9524;SDS011;15940;48.734;9.112;2023-07-02T08:32:46;20.17;;;11.77;;
9524;SDS011;15940;48.734;9.112;2023-07-02T08:35:13;16.37;;;10.77;;
9524;SDS011;15940;48.734;9.112;2023-07-02T08:37:41;18.23;;;11.53;;
9524;SDS011;15940;48.734;9.112;2023-07-02T08:40:15;15.97;;;11.10;;
9524;SDS011;15940;48.734;9.112;2023-07-02T08:42:43;17.50;;;11.80;;
9524;SDS011;15940;48.734;9.112;2023-07-02T08:45:12;18.17;;;11.87;;
9524;SDS011;15940;48.734;9.112;2023-07-02T08:47:40;13.60;;;10.67;;
9524;SDS011;15940;48.734;9.112;2023-07-02T08:50:09;17.97;;;11.27;;
9524;SDS011;15940;48.734;9.112;2023-07-02T08:52:37;18.87;;;11.00;;
9524;SDS011;15940;48.734;9.112;2023-07-02T08:55:05;13.57;;;10.07;;
9524;SDS011;15940;48.734;9.112;2023-07-02T08:57:34;17.47;;;10.93;;
9524;SDS011;15940;48.734;9.112;2023-07-02T09:00:17;17.07;;;10.93;;
9524;SDS011;15940;48.734;9.112;2023-07-02T09:02:44;16.63;;;10.17;;
9524;SDS011;15940;48.734;9.112;2023-07-02T09:05:13;14.57;;;9.47;;
9524;SDS011;15940;48.734;9.112;2023-07-02T09:07:44;13.87;;;9.83;;
9524;SDS011;15940;48.734;9.112;2023-07-02T09:10:25;14.67;;;10.20;;
9524;SDS011;15940;48.734;9.112;2023-07-02T09:13:02;12.77;;;9.80;;
9524;SDS011;15940;48.734;9.112;2023-07-02T09:15:40;15.50;;;8.87;;
9524;SDS011;15940;48.734;9.112;2023-07-02T09:18:20;13.70;;;8.73;;
9524;SDS011;15940;48.734;9.112;2023-07-02T09:20:55;13.53;;;10.10;;
9524;SDS011;15940;48.734;9.112;2023-07-02T09:23:22;12.57;;;9.00;;
9524;SDS011;15940;48.734;9.112;2023-07-02T09:26:00;14.73;;;9.93;;
9524;SDS011;15940;48.734;9.112;2023-07-02T09:28:27;14.87;;;8.83;;
9524;SDS011;15940;48.734;9.112;2023-07-02T09:31:01;14.00;;;9.60;;
9524;SDS011;15940;48.734;9.112;2023-07-02T09:33:28;15.83;;;9.70;;
9524;SDS011;15940;48.734;9.112;2023-07-02T09:35:57;10.40;;;8.77;;
9524;SDS011;15940;48.734;9.112;2023-07-02T09:38:25;14.67;;;9.10;;
9524;SDS011;15940;48.734;9.112;2023-07-02T09:40:54;11.57;;;8.70;;
9524;SDS011;15940;48.734;9.112;2023-07-02T09:43:21;13.03;;;9.50;;
9524;SDS011;15940;48.734;9.112;2023-07-02T09:45:53;17.27;;;9.57;;
9524;SDS011;15940;48.734;9.112;2023-07-02T09:48:22;11.77;;;9.20;;
9524;SDS011;15940;48.734;9.112;2023-07-02T09:50:56;16.53;;;10.00;;
9524;SDS011;15940;48.734;9.112;2023-07-02T09:53:26;13.37;;;9.27;;
9524;SDS011;15940;48.734;9.112;2023-07-02T09:55:54;20.30;;;10.43;;
9524;SDS011;15940;48.734;9.112;2023-07-02T09:58:23;13.83;;;10.57;;
9524;SDS011;15940;48.734;9.112;2023-07-02T10:00:50;15.27;;;11.93;;
9524;SDS011;15940;48.734;9.112;2023-07-02T10:03:29;16.63;;;12.40;;
9524;SDS011;15940;48.734;9.112;2023-07-02T10:06:08;15.37;;;11.07;;
9524;SDS011;15940;48.734;9.112;2023-07-02T10:08:35;14.60;;;11.60;;
9524;SDS011;15940;48.734;9.112;2023-07-02T10:11:08;15.13;;;12.07;;
9524;SDS011;15940;48.734;9.112;2023-07-02T10:13:39;16.07;;;12.43;;
9524;SDS011;15940;48.734;9.112;2023-07-02T10:16:06;15.70;;;12.40;;
9524;SDS011;15940;48.734;9.112;2023-07-02T10:18:34;18.23;;;12.87;;
9524;SDS011;15940;48.734;9.112;2023-07-02T10:21:14;15.67;;;12.90;;
9524;SDS011;15940;48.734;9.112;2023-07-02T10:23:42;17.20;;;12.53;;
9524;SDS011;15940;48.734;9.112;2023-07-02T10:26:13;16.60;;;12.37;;
9524;SDS011;15940;48.734;9.112;2023-07-02T10:28:55;16.20;;;10.73;;
9524;SDS011;15940;48.734;9.112;2023-07-02T10:31:23;14.97;;;12.07;;
9524;SDS011;15940;48.734;9.112;2023-07-02T10:33:50;14.97;;;11.07;;
9524;SDS011;15940;48.734;9.112;2023-07-02T10:36:19;15.70;;;11.63;;
9524;SDS011;15940;48.734;9.112;2023-07-02T10:38:47;15.47;;;12.23;;
9524;SDS011;15940;48.734;9.112;2023-07-02T10:41:23;13.07;;;10.90;;
9524;SDS011;15940;48.734;9.112;2023-07-02T10:43:51;13.47;;;10.63;;
9524;SDS011;15940;48.734;9.112;2023-07-02T10:46:18;16.67;;;11.13;;
9524;SDS011;15940;48.734;9.112;2023-07-02T10:48:52;16.40;;;10.70;;
9524;SDS011;15940;48.734;9.112;2023-07-02T10:51:23;15.83;;;11.87;;
9524;SDS011;15940;48.734;9.112;2023-07-02T10:53:57;15.60;;;11.13;;
9524;SDS011;15940;48.734;9.112;2023-07-02T10:56:24;16.47;;;12.27;;
9524;SDS011;15940;48.734;9.112;2023-07-02T10:58:53;15.53;;;12.47;;
9524;SDS011;15940;48.734;9.112;2023-07-02T11:01:25;17.07;;;11.97;;
9524;SDS011;15940;48.734;9.112;2023-07-02T11:03:59;15.53;;;11.43;;
9524;SDS011;15940;48.734;9.112;2023-07-02T11:06:30;15.37;;;11.80;;
9524;SDS011;15940;48.734;9.112;2023-07-02T11:09:00;15.30;;;10.93;;
9524;SDS011;15940;48.734;9.112;2023-07-02T11:11:29;14.27;;;10.70;;
9524;SDS011;15940;48.734;9.112;2023-07-02T11:13:56;14.87;;;11.47;;
9524;SDS011;15940;48.734;9.112;2023-07-02T11:16:23;18.53;;;10.73;;
9524;SDS011;15940;48.734;9.112;2023-07-02T11:18:53;14.80;;;10.23;;
9524;SDS011;15940;48.734;9.112;2023-07-02T11:21:34;15.63;;;11.30;;
9524;SDS011;15940;48.734;9.112;2023-07-02T11:24:03;17.83;;;12.07;;
9524;SDS011;15940;48.734;9.112;2023-07-02T11:26:40;14.83;;;10.70;;
9524;SDS011;15940;48.734;9.112;2023-07-02T11:29:10;16.23;;;11.03;;
9524;SDS011;15940;48.734;9.112;2023-07-02T11:31:38;13.47;;;10.60;;
9524;SDS011;15940;48.734;9.112;2023-07-02T11:34:11;14.63;;;11.40;;
9524;SDS011;15940;48.734;9.112;2023-07-02T11:36:42;15.23;;;11.37;;
9524;SDS011;15940;48.734;9.112;2023-07-02T11:39:09;14.33;;;10.60;;
9524;SDS011;15940;48.734;9.112;2023-07-02T11:41:38;12.50;;;10.67;;
9524;SDS011;15940;48.734;9.112;2023-07-02T11:44:05;17.93;;;10.50;;
9524;SDS011;15940;48.734;9.112;2023-07-02T11:46:32;13.97;;;10.67;;
9524;SDS011;15940;48.734;9.112;2023-07-02T11:48:59;14.83;;;10.43;;
9524;SDS011;15940;48.734;9.112;2023-07-02T11:51:27;14.63;;;11.50;;
9524;SDS011;15940;48.734;9.112;2023-07-02T11:53:55;12.03;;;10.73;;
9524;SDS011;15940;48.734;9.112;2023-07-02T11:56:22;14.30;;;10.60;;
9524;SDS011;15940;48.734;9.112;2023-07-02T11:58:57;15.60;;;12.10;;
9524;SDS011;15940;48.734;9.112;2023-07-02T12:01:25;13.33;;;10.07;;
9524;SDS011;15940;48.734;9.112;2023-07-02T12:03:52;14.30;;;10.87;;
9524;SDS011;15940;48.734;9.112;2023-07-02T12:06:20;15.87;;;11.47;;
9524;SDS011;15940;48.734;9.112;2023-07-02T12:08:47;14.77;;;11.10;;
9524;SDS011;15940;48.734;9.112;2023-07-02T12:11:16;15.60;;;10.97;;
9524;SDS011;15940;48.734;9.112;2023-07-02T12:13:44;13.83;;;11.37;;
9524;SDS011;15940;48.734;9.112;2023-07-02T12:16:12;14.53;;;10.23;;
9524;SDS011;15940;48.734;9.112;2023-07-02T12:18:42;14.10;;;11.10;;
9524;SDS011;15940;48.734;9.112;2023-07-02T12:21:11;13.77;;;10.30;;
9524;SDS011;15940;48.734;9.112;2023-07-02T12:23:38;16.63;;;11.07;;
9524;SDS011;15940;48.734;9.112;2023-07-02T12:26:05;12.07;;;10.43;;
9524;SDS011;15940;48.734;9.112;2023-07-02T12:28:34;14.70;;;11.07;;
9524;SDS011;15940;48.734;9.112;2023-07-02T12:31:03;18.00;;;11.53;;
9524;SDS011;15940;48.734;9.112;2023-07-02T12:33:38;13.13;;;11.10;;
9524;SDS011;15940;48.734;9.112;2023-07-02T12:36:05;13.27;;;10.03;;
9524;SDS011;15940;48.734;9.112;2023-07-02T12:38:35;13.90;;;10.20;;
9524;SDS011;15940;48.734;9.112;2023-07-02T12:41:05;15.23;;;11.47;;
9524;SDS011;15940;48.734;9.112;2023-07-02T12:43:32;14.80;;;11.10;;
9524;SDS011;15940;48.734;9.112;2023-07-02T12:46:00;14.37;;;11.00;;
9524;SDS011;15940;48.734;9.112;2023-07-02T12:48:30;14.37;;;11.10;;
9524;SDS011;15940;48.734;9.112;2023-07-02T12:50:57;14.80;;;11.50;;
9524;SDS011;15940;48.734;9.112;2023-07-02T12:53:26;15.10;;;10.63;;
9524;SDS011;15940;48.734;9.112;2023-07-02T12:55:54;14.00;;;10.97;;
9524;SDS011;15940;48.734;9.112;2023-07-02T12:58:21;14.87;;;11.13;;
9524;SDS011;15940;48.734;9.112;2023-07-02T13:00:48;13.80;;;10.63;;
9524;SDS011;15940;48.734;9.112;2023-07-02T13:03:17;15.83;;;10.67;;
9524;SDS011;15940;48.734;9.112;2023-07-02T13:05:44;14.10;;;10.40;;
9524;SDS011;15940;48.734;9.112;2023-07-02T13:08:11;13.27;;;10.10;;
9524;SDS011;15940;48.734;9.112;2023-07-02T13:10:38;16.20;;;11.10;;
9524;SDS011;15940;48.734;9.112;2023-07-02T13:13:05;13.00;;;10.50;;
9524;SDS011;15940;48.734;9.112;2023-07-02T13:15:32;14.47;;;10.53;;
9524;SDS011;15940;48.734;9.112;2023-07-02T13:18:00;14.63;;;10.80;;
9524;SDS011;15940;48.734;9.112;2023-07-02T13:20:30;14.37;;;10.30;;
9524;SDS011;15940;48.734;9.112;2023-07-02T13:22:58;15.63;;;11.60;;
9524;SDS011;15940;48.734;9.112;2023-07-02T13:25:25;14.37;;;10.37;;
9524;SDS011;15940;48.734;9.112;2023-07-02T13:27:52;11.83;;;10.10;;
9524;SDS011;15940;48.734;9.112;2023-07-02T13:30:20;13.83;;;10.70;;
9524;SDS011;15940;48.734;9.112;2023-07-02T13:32:48;12.13;;;10.63;;
9524;SDS011;15940;48.734;9.112;2023-07-02T13:35:15;13.50;;;10.30;;
9524;SDS011;15940;48.734;9.112;2023-07-02T13:37:43;17.13;;;10.63;;
9524;SDS011;15940;48.734;9.112;2023-07-02T13:40:17;12.60;;;10.07;;
9524;SDS011;15940;48.734;9.112;2023-07-02T13:42:44;11.87;;;9.60;;
9524;SDS011;15940;48.734;9.112;2023-07-02T13:45:14;13.30;;;10.30;;
9524;SDS011;15940;48.734;9.112;2023-07-02T13:47:41;11.77;;;9.73;;
9524;SDS011;15940;48.734;9.112;2023-07-02T13:50:08;13.87;;;10.03;;
9524;SDS011;15940;48.734;9.112;2023-07-02T13:52:36;12.87;;;10.13;;
9524;SDS011;15940;48.734;9.112;2023-07-02T13:55:06;11.93;;;10.33;;
9524;SDS011;15940;48.734;9.112;2023-07-02T13:57:36;15.60;;;11.30;;
9524;SDS011;15940;48.734;9.112;2023-07-02T14:00:06;14.10;;;10.57;;
9524;SDS011;15940;48.734;9.112;2023-07-02T14:05:51;13.57;;;10.60;;
9524;SDS011;15940;48.734;9.112;2023-07-02T14:08:19;12.93;;;10.13;;
9524;SDS011;15940;48.734;9.112;2023-07-02T14:10:48;13.30;;;10.80;;
9524;SDS011;15940;48.734;9.112;2023-07-02T14:13:17;15.33;;;11.13;;
9524;SDS011;15940;48.734;9.112;2023-07-02T14:15:50;13.00;;;11.03;;
9524;SDS011;15940;48.734;9.112;2023-07-02T14:18:18;12.97;;;10.43;;
9524;SDS011;15940;48.734;9.112;2023-07-02T14:20:45;14.20;;;11.00;;
9524;SDS011;15940;48.734;9.112;2023-07-02T14:23:12;13.97;;;11.70;;
9524;SDS011;15940;48.734;9.112;2023-07-02T14:25:40;14.73;;;10.83;;
9524;SDS011;15940;48.734;9.112;2023-07-02T14:28:09;12.43;;;10.40;;
9524;SDS011;15940;48.734;9.112;2023-07-02T14:30:36;12.73;;;10.50;;
9524;SDS011;15940;48.734;9.112;2023-07-02T14:33:05;13.47;;;11.07;;
9524;SDS011;15940;48.734;9.112;2023-07-02T14:35:35;13.23;;;10.17;;
9524;SDS011;15940;48.734;9.112;2023-07-02T14:38:03;15.20;;;11.37;;
9524;SDS011;15940;48.734;9.112;2023-07-02T14:40:31;14.07;;;11.00;;
9524;SDS011;15940;48.734;9.112;2023-07-02T14:42:58;12.83;;;10.73;;
9524;SDS011;15940;48.734;9.112;2023-07-02T14:45:30;14.27;;;11.30;;
9524;SDS011;15940;48.734;9.112;2023-07-02T14:47:57;14.30;;;11.00;;
9524;SDS011;15940;48.734;9.112;2023-07-02T14:50:28;13.33;;;10.57;;
9524;SDS011;15940;48.734;9.112;2023-07-02T14:53:04;12.07;;;10.73;;
9524;SDS011;15940;48.734;9.112;2023-07-02T14:55:31;14.03;;;11.53;;
9524;SDS011;15940;48.734;9.112;2023-07-02T14:57:59;14.07;;;11.03;;
9524;SDS011;15940;48.734;9.112;2023-07-02T15:00:26;13.83;;;10.13;;
9524;SDS011;15940;48.734;9.112;2023-07-02T15:02:54;14.63;;;11.23;;